createdAt,value
2022-11-09T00:01:04.476Z,22.90
2022-11-09T00:03:34.512Z,23.93
2022-11-09T00:06:04.334Z,22.23
2022-11-09T00:08:34.488Z,22.43
2022-11-09T00:11:12.204Z,21.63
2022-11-09T00:16:41.953Z,22.80
2022-11-09T00:19:14.634Z,23.23
2022-11-09T00:21:47.289Z,22.23
2022-11-09T00:24:21.324Z,21.77
2022-11-09T00:26:56.283Z,22.73
2022-11-09T00:29:26.271Z,21.23
2022-11-09T00:31:56.080Z,21.90
2022-11-09T00:34:25.759Z,22.13
2022-11-09T00:39:56.458Z,21.33
2022-11-09T00:42:28.545Z,22.33
2022-11-09T00:45:01.197Z,21.67
2022-11-09T00:47:33.517Z,22.97
2022-11-09T00:50:03.565Z,21.33
2022-11-09T00:52:34.436Z,22.03
2022-11-09T00:55:04.642Z,21.40
2022-11-09T00:57:35.967Z,21.33
2022-11-09T01:00:10.236Z,21.07
2022-11-09T01:02:39.603Z,21.50
2022-11-09T01:05:10.616Z,21.57
2022-11-09T01:07:40.759Z,21.30
2022-11-09T01:10:12.340Z,21.07
2022-11-09T01:12:43.611Z,22.00
2022-11-09T01:15:13.234Z,21.20
2022-11-09T01:17:43.049Z,19.93
2022-11-09T01:20:13.582Z,20.87
2022-11-09T01:22:43.047Z,20.70
2022-11-09T01:25:12.477Z,20.00
2022-11-09T01:27:43.869Z,20.33
2022-11-09T01:30:15.462Z,20.67
2022-11-09T01:32:45.877Z,19.93
2022-11-09T01:35:16.078Z,19.93
2022-11-09T01:37:45.931Z,19.77
2022-11-09T01:40:16.057Z,20.20
2022-11-09T01:42:50.264Z,19.23
2022-11-09T01:45:29.901Z,18.93
2022-11-09T01:48:04.999Z,19.20
2022-11-09T01:50:40.998Z,18.50
2022-11-09T01:53:19.664Z,19.37
2022-11-09T01:55:53.232Z,18.97
2022-11-09T01:58:28.406Z,20.03
2022-11-09T02:00:59.808Z,20.00
2022-11-09T02:03:34.048Z,19.83
2022-11-09T02:06:08.080Z,19.63
2022-11-09T02:08:38.608Z,20.27
2022-11-09T02:11:10.936Z,19.53
2022-11-09T02:13:48.661Z,19.77
2022-11-09T02:16:20.536Z,19.13
2022-11-09T02:18:59.156Z,20.47
2022-11-09T02:21:38.265Z,18.63
2022-11-09T02:24:20.866Z,19.53
2022-11-09T02:26:53.359Z,19.27
2022-11-09T02:29:26.656Z,18.93
2022-11-09T02:31:59.757Z,19.30
2022-11-09T02:34:31.263Z,18.93
2022-11-09T02:37:05.455Z,18.60
2022-11-09T02:39:36.285Z,19.23
2022-11-09T02:42:15.753Z,20.07
2022-11-09T02:45:18.601Z,19.00
2022-11-09T02:48:06.548Z,18.83
2022-11-09T02:50:48.549Z,18.87
2022-11-09T02:53:29.977Z,20.37
2022-11-09T02:55:59.944Z,19.63
2022-11-09T02:58:30.559Z,20.77
2022-11-09T03:01:02.157Z,19.53
2022-11-09T03:03:33.056Z,20.57
2022-11-09T03:06:03.264Z,20.70
2022-11-09T03:08:34.512Z,20.90
2022-11-09T03:11:03.976Z,20.97
2022-11-09T03:13:33.425Z,20.67
2022-11-09T03:34:06.074Z,20.43
2022-11-09T03:36:38.089Z,20.90
2022-11-09T03:39:07.210Z,20.40
2022-11-09T03:41:36.574Z,22.00
2022-11-09T03:44:06.221Z,20.60
2022-11-09T03:46:35.729Z,20.33
2022-11-09T03:49:06.263Z,20.87
2022-11-09T03:51:35.511Z,20.77
2022-11-09T03:54:04.751Z,20.83
2022-11-09T03:56:33.804Z,20.97
2022-11-09T03:59:02.974Z,20.60
2022-11-09T04:01:32.047Z,20.33
2022-11-09T04:04:01.092Z,19.83
2022-11-09T04:06:31.676Z,19.67
2022-11-09T04:09:00.979Z,19.67
2022-11-09T04:11:30.193Z,18.90
2022-11-09T04:13:59.344Z,18.13
2022-11-09T04:16:28.613Z,20.53
2022-11-09T04:18:58.036Z,20.00
2022-11-09T04:21:27.161Z,19.63
2022-11-09T04:23:57.575Z,20.13
2022-11-09T04:26:26.533Z,18.83
2022-11-09T04:28:57.680Z,19.53
2022-11-09T04:31:29.347Z,20.00
2022-11-09T04:33:58.921Z,19.60
2022-11-09T04:36:28.330Z,19.33
2022-11-09T04:38:59.174Z,20.57
2022-11-09T04:41:29.425Z,21.13
2022-11-09T04:43:58.833Z,20.47
2022-11-09T04:46:28.755Z,21.67
2022-11-09T04:48:57.984Z,20.67
2022-11-09T04:51:27.345Z,21.13
2022-11-09T04:53:56.798Z,20.93
2022-11-09T04:56:30.196Z,19.17
2022-11-09T05:32:42.740Z,22.73
2022-11-09T05:35:14.612Z,20.90
2022-11-09T05:37:50.392Z,22.57
2022-11-09T05:40:21.699Z,22.77
2022-11-09T05:48:45.080Z,21.70
2022-11-09T06:02:47.412Z,21.53
2022-11-09T06:05:25.508Z,20.67
2022-11-09T06:07:55.861Z,20.77
2022-11-09T06:10:25.922Z,21.40
2022-11-09T06:12:55.572Z,20.97
2022-11-09T06:15:25.302Z,22.73
2022-11-09T06:17:54.693Z,22.13
2022-11-09T06:20:26.552Z,21.03
2022-11-09T06:23:02.470Z,22.30
2022-11-09T06:25:33.831Z,20.77
2022-11-09T06:28:03.972Z,21.33
2022-11-09T06:30:33.871Z,22.43
2022-11-09T06:33:04.302Z,22.17
2022-11-09T06:35:37.656Z,20.80
2022-11-09T06:38:12.190Z,21.90
2022-11-09T06:40:42.423Z,22.60
2022-11-09T06:43:12.182Z,23.47
2022-11-09T06:45:41.802Z,22.07
2022-11-09T06:48:12.653Z,20.83
2022-11-09T06:50:44.379Z,21.50
2022-11-09T06:56:14.618Z,27.20
2022-11-09T06:58:47.963Z,23.13
2022-11-09T07:01:21.279Z,21.00
2022-11-09T07:03:51.832Z,22.23
2022-11-09T07:06:25.253Z,21.93
2022-11-09T07:09:00.393Z,21.97
2022-11-09T07:11:30.813Z,21.90
2022-11-09T07:14:01.887Z,22.20
2022-11-09T07:16:47.842Z,21.53
2022-11-09T07:19:17.545Z,21.87
2022-11-09T07:21:56.153Z,21.97
2022-11-09T07:24:37.803Z,22.30
2022-11-09T07:27:10.872Z,22.40
2022-11-09T07:29:40.923Z,21.37
2022-11-09T07:32:10.971Z,21.37
2022-11-09T07:34:40.673Z,22.47
2022-11-09T07:37:11.748Z,21.77
2022-11-09T07:39:44.884Z,21.57
2022-11-09T07:42:16.601Z,22.37
2022-11-09T07:44:47.235Z,22.77
2022-11-09T07:47:20.461Z,22.20
2022-11-09T07:49:51.468Z,21.57
2022-11-09T07:52:22.788Z,22.33
2022-11-09T07:54:52.787Z,21.57
2022-11-09T08:30:02.044Z,20.70
2022-11-09T08:32:34.996Z,21.00
2022-11-09T08:35:05.878Z,21.67
2022-11-09T08:57:04.629Z,21.77
2022-11-09T09:02:42.998Z,22.03
2022-11-09T09:05:20.831Z,21.60
2022-11-09T09:07:51.236Z,20.87
2022-11-09T09:10:24.149Z,20.93
2022-11-09T09:12:54.448Z,21.37
2022-11-09T09:15:24.496Z,21.70
2022-11-09T09:17:56.210Z,22.17
2022-11-09T09:20:30.536Z,22.50
2022-11-09T09:23:00.791Z,21.97
2022-11-09T09:25:31.089Z,22.27
2022-11-09T09:28:01.156Z,22.47
2022-11-09T09:30:33.877Z,23.63
2022-11-09T09:33:09.388Z,26.80
2022-11-09T09:35:41.008Z,27.47
2022-11-09T09:38:10.837Z,28.63
2022-11-09T09:40:47.877Z,28.73
2022-11-09T09:43:26.892Z,23.20
2022-11-09T10:13:42.433Z,23.35
2022-11-09T10:16:23.437Z,21.33
2022-11-09T10:19:24.114Z,21.17
2022-11-09T10:22:00.113Z,21.80
2022-11-09T10:29:22.948Z,21.60
2022-11-09T10:31:56.139Z,21.40
2022-11-09T10:34:38.020Z,21.23
2022-11-09T10:37:23.097Z,21.37
2022-11-09T10:40:01.547Z,21.80
2022-11-09T10:42:57.747Z,21.57
2022-11-09T10:46:18.787Z,24.17
2022-11-09T10:49:22.027Z,23.13
2022-11-09T10:52:45.998Z,21.73
2022-11-09T10:55:37.376Z,20.57
2022-11-09T10:58:32.561Z,21.60
2022-11-09T11:01:25.137Z,21.53
2022-11-09T11:04:23.547Z,21.30
2022-11-09T11:07:21.777Z,22.00
2022-11-09T11:10:22.496Z,21.27
2022-11-09T11:13:25.207Z,20.97
2022-11-09T11:16:29.785Z,21.50
2022-11-09T11:19:36.904Z,21.63
2022-11-09T11:22:43.138Z,21.50
2022-11-09T11:29:00.553Z,20.73
2022-11-09T11:31:51.124Z,21.23
2022-11-09T11:34:58.992Z,19.80
2022-11-09T11:37:58.305Z,21.07
2022-11-09T11:40:51.305Z,21.13
2022-11-09T11:43:50.265Z,21.50
2022-11-09T11:46:45.877Z,21.50
2022-11-09T11:50:04.039Z,19.63
2022-11-09T11:53:04.281Z,20.17
2022-11-09T11:56:19.765Z,21.37
2022-11-09T11:59:56.598Z,19.73
2022-11-09T12:03:15.386Z,20.20
2022-11-09T12:06:23.565Z,20.40
2022-11-09T12:09:46.427Z,19.87
2022-11-09T12:12:47.546Z,18.90
2022-11-09T12:15:52.060Z,21.30
2022-11-09T12:19:35.546Z,20.40
2022-11-09T12:22:53.068Z,19.17
2022-11-09T12:25:57.227Z,19.07
2022-11-09T12:29:11.169Z,18.50
2022-11-09T12:32:12.288Z,19.30
2022-11-09T12:35:14.970Z,19.90
2022-11-09T12:41:56.730Z,19.47
2022-11-09T12:44:52.156Z,19.57
2022-11-09T12:47:46.027Z,18.97
2022-11-09T12:50:47.399Z,19.93
2022-11-09T12:53:38.985Z,19.50
2022-11-09T12:56:31.966Z,18.97
2022-11-09T12:59:36.587Z,20.50
2022-11-09T13:02:33.622Z,19.10
2022-11-09T13:05:34.283Z,19.00
2022-11-09T13:08:29.639Z,19.63
2022-11-09T13:11:25.232Z,20.27
2022-11-09T13:14:36.115Z,20.70
2022-11-09T13:18:05.478Z,18.83
2022-11-09T13:20:56.590Z,19.00
2022-11-09T13:24:03.884Z,20.43
2022-11-09T13:27:05.352Z,18.83
2022-11-09T13:29:56.764Z,20.57
2022-11-09T13:33:27.077Z,19.30
2022-11-09T13:36:19.737Z,19.40
2022-11-09T13:39:41.457Z,21.20
2022-11-09T13:42:34.797Z,19.93
2022-11-09T13:45:36.717Z,18.53
2022-11-09T13:48:53.715Z,19.83
2022-11-09T13:51:50.176Z,19.73
2022-11-09T13:54:39.764Z,18.93
2022-11-09T13:57:40.087Z,20.73
2022-11-09T14:00:30.142Z,19.50
2022-11-09T14:03:22.516Z,19.07
2022-11-09T14:06:20.028Z,19.50
2022-11-09T14:09:19.335Z,18.70
2022-11-09T14:12:42.584Z,19.57
2022-11-09T14:15:47.945Z,19.53
2022-11-09T14:18:46.218Z,20.20
2022-11-09T14:21:48.365Z,19.27
2022-11-09T14:24:40.624Z,20.07
2022-11-09T14:27:35.637Z,19.53
2022-11-09T14:30:36.653Z,20.17
2022-11-09T14:33:28.278Z,19.83
2022-11-09T14:36:17.635Z,20.17
2022-11-09T14:39:08.676Z,18.87
2022-11-09T14:41:59.818Z,18.77
2022-11-09T14:44:50.805Z,19.10
2022-11-09T14:47:42.216Z,19.30
2022-11-09T14:50:37.777Z,18.80
2022-11-09T14:53:31.885Z,19.23
2022-11-09T14:56:22.866Z,18.70
2022-11-09T14:59:14.926Z,18.80
2022-11-09T15:02:06.666Z,20.13
2022-11-09T15:04:59.519Z,19.83
2022-11-09T15:07:55.676Z,20.40
2022-11-09T15:10:50.387Z,20.23
2022-11-09T15:13:41.055Z,19.10
2022-11-09T15:16:32.856Z,20.50
2022-11-09T15:19:31.322Z,19.53
2022-11-09T15:22:50.575Z,19.90
2022-11-09T15:25:55.980Z,20.73
2022-11-09T15:28:48.645Z,22.03
2022-11-09T15:31:36.646Z,19.90
2022-11-09T15:34:35.566Z,21.43
2022-11-09T15:37:28.663Z,21.10
2022-11-09T15:40:21.366Z,21.23
2022-11-09T15:43:10.182Z,20.97
2022-11-09T15:46:00.876Z,22.47
2022-11-09T15:48:50.026Z,21.47
2022-11-09T15:51:39.166Z,20.93
2022-11-09T15:54:28.267Z,21.33
2022-11-09T15:57:22.255Z,21.47
2022-11-09T16:00:19.507Z,21.13
2022-11-09T16:03:13.975Z,20.20
2022-11-09T16:06:03.841Z,21.47
2022-11-09T16:08:53.895Z,20.83
2022-11-09T16:11:43.126Z,22.17
2022-11-09T16:14:35.746Z,21.00
2022-11-09T16:17:24.616Z,21.30
2022-11-09T16:20:14.140Z,23.07
2022-11-09T16:23:02.738Z,22.03
2022-11-09T16:25:52.188Z,21.47
2022-11-09T16:28:43.876Z,21.87
2022-11-09T16:31:52.581Z,22.20
2022-11-09T16:34:41.700Z,22.70
2022-11-09T16:37:34.195Z,22.67
2022-11-09T16:40:24.086Z,22.53
2022-11-09T16:43:12.500Z,22.97
2022-11-09T16:46:02.116Z,22.17
2022-11-09T16:48:52.752Z,22.63
2022-11-09T16:51:41.955Z,22.90
2022-11-09T16:54:30.224Z,22.87
2022-11-09T16:57:21.236Z,21.77
2022-11-09T17:00:11.514Z,21.30
2022-11-09T17:03:03.826Z,22.97
2022-11-09T17:05:53.795Z,22.93
2022-11-09T17:08:44.086Z,21.17
2022-11-09T17:11:32.380Z,22.97
2022-11-09T17:14:21.149Z,23.20
2022-11-09T17:17:10.228Z,23.23
2022-11-09T17:20:00.099Z,23.33
2022-11-09T17:22:52.949Z,23.97
2022-11-09T17:25:41.125Z,23.03
2022-11-09T17:28:30.377Z,24.03
2022-11-09T17:31:21.904Z,24.90
2022-11-09T17:34:12.657Z,23.67
2022-11-09T17:37:16.799Z,23.50
2022-11-09T17:47:12.233Z,25.00
2022-11-09T17:50:03.186Z,25.03
2022-11-09T17:52:52.005Z,26.60
2022-11-09T17:55:44.148Z,24.67
2022-11-09T17:58:33.796Z,24.93
2022-11-09T18:01:44.735Z,24.50
2022-11-09T18:04:35.027Z,25.13
2022-11-09T18:07:23.784Z,24.87
2022-11-09T18:10:13.486Z,24.33
2022-11-09T18:13:11.068Z,24.80
2022-11-09T18:16:01.033Z,24.27
2022-11-09T18:18:51.675Z,24.17
2022-11-09T18:21:42.192Z,23.77
2022-11-09T18:24:31.196Z,24.00
2022-11-09T18:27:29.909Z,23.70
2022-11-09T18:30:25.402Z,22.60
2022-11-09T18:33:14.425Z,23.33
2022-11-09T18:36:05.895Z,23.80
2022-11-09T18:38:57.305Z,22.77
2022-11-09T18:41:47.170Z,22.83
2022-11-09T18:44:40.558Z,22.53
2022-11-09T18:47:31.964Z,22.80
2022-11-09T18:50:22.870Z,23.90
2022-11-09T18:53:12.964Z,23.47
2022-11-09T18:56:06.763Z,23.37
2022-11-09T18:58:57.828Z,23.23
2022-11-09T19:01:47.133Z,22.43
2022-11-09T19:04:40.358Z,23.70
2022-11-09T19:07:42.931Z,24.40
2022-11-09T19:10:32.147Z,24.53
2022-11-09T19:13:23.626Z,23.47
2022-11-09T19:16:17.136Z,23.37
2022-11-09T19:19:06.759Z,24.00
2022-11-09T19:21:58.564Z,24.20
2022-11-09T19:24:48.224Z,24.03
2022-11-09T19:27:38.556Z,24.77
2022-11-09T19:30:28.405Z,25.43
2022-11-09T19:33:18.454Z,25.27
2022-11-09T19:36:29.251Z,25.53
2022-11-09T19:39:21.938Z,25.70
2022-11-09T19:42:11.579Z,24.93
2022-11-09T19:45:00.098Z,24.67
2022-11-09T19:47:53.178Z,24.47
2022-11-09T19:50:47.042Z,25.37
2022-11-09T19:53:41.075Z,25.50
2022-11-09T19:56:37.403Z,25.73
2022-11-09T19:59:28.235Z,26.47
2022-11-09T20:02:20.833Z,28.47
2022-11-09T20:05:16.732Z,27.73
2022-11-09T20:08:06.428Z,28.27
2022-11-09T20:10:57.021Z,28.07
2022-11-09T20:13:47.931Z,31.17
2022-11-09T20:16:39.409Z,30.40
2022-11-09T20:19:30.498Z,30.83
2022-11-09T20:22:20.525Z,29.40
2022-11-09T20:25:11.197Z,31.83
2022-11-09T20:28:00.726Z,32.30
2022-11-09T20:30:52.884Z,31.13
2022-11-09T20:33:42.712Z,32.70
2022-11-09T20:36:32.523Z,30.33
2022-11-09T20:39:22.049Z,29.27
2022-11-09T20:42:13.070Z,29.93
2022-11-09T20:45:02.697Z,30.40
2022-11-09T20:48:30.990Z,30.97
2022-11-09T20:51:09.065Z,29.47
2022-11-09T20:54:02.485Z,29.07
2022-11-09T20:56:56.650Z,30.10
2022-11-09T20:59:45.836Z,30.33
2022-11-09T21:02:35.458Z,30.17
2022-11-09T21:05:27.496Z,30.87
2022-11-09T21:08:18.451Z,29.30
2022-11-09T21:11:14.252Z,32.60
2022-11-09T21:14:03.236Z,33.57
2022-11-09T21:16:58.053Z,29.20
2022-11-09T21:19:46.557Z,30.07
2022-11-09T21:22:58.879Z,29.53
2022-11-09T21:26:05.023Z,29.97
2022-11-09T21:29:13.454Z,29.03
2022-11-09T21:32:11.587Z,30.67
2022-11-09T21:35:00.789Z,29.73
2022-11-09T21:37:51.569Z,30.90
2022-11-09T21:40:40.082Z,31.43
2022-11-09T21:43:28.470Z,30.03
2022-11-09T21:46:16.636Z,29.87
2022-11-09T21:49:05.925Z,29.40
2022-11-09T21:51:54.579Z,33.97
2022-11-09T21:54:44.338Z,30.37
2022-11-09T21:57:32.364Z,30.10
2022-11-09T22:00:23.844Z,29.37
2022-11-09T22:03:12.749Z,29.43
2022-11-09T22:06:00.960Z,29.60
2022-11-09T22:08:49.861Z,29.13
2022-11-09T22:11:59.001Z,29.00
2022-11-09T22:15:05.150Z,29.23
2022-11-09T22:17:59.803Z,28.77
2022-11-09T22:20:57.013Z,29.27
2022-11-09T22:23:46.577Z,29.70
2022-11-09T22:26:35.423Z,28.53
2022-11-09T22:29:25.963Z,28.17
2022-11-09T22:32:16.210Z,28.90
2022-11-09T22:35:08.091Z,28.83
2022-11-09T22:38:02.052Z,28.90
2022-11-09T22:40:50.506Z,27.07
2022-11-09T22:43:41.286Z,28.30
2022-11-09T22:46:30.915Z,27.30
2022-11-09T22:49:19.725Z,28.93
2022-11-09T22:52:10.707Z,28.57
2022-11-09T22:54:59.323Z,27.30
2022-11-09T22:57:47.756Z,28.40
2022-11-09T23:00:36.431Z,28.23
2022-11-09T23:03:26.051Z,28.43
2022-11-09T23:06:16.981Z,27.73
2022-11-09T23:09:05.443Z,28.77
2022-11-09T23:11:53.591Z,29.00
2022-11-09T23:15:02.636Z,28.23
2022-11-09T23:18:08.067Z,28.67
2022-11-09T23:21:02.144Z,27.97
2022-11-09T23:23:51.350Z,29.23
2022-11-09T23:26:39.537Z,27.90
2022-11-09T23:29:27.857Z,28.93
2022-11-09T23:32:16.056Z,28.87
2022-11-09T23:35:04.314Z,28.23
2022-11-09T23:38:01.360Z,28.10
2022-11-09T23:40:49.747Z,29.00
2022-11-09T23:43:38.131Z,29.97
2022-11-09T23:46:26.960Z,26.53
2022-11-09T23:49:15.356Z,28.40
2022-11-09T23:52:11.160Z,41.87
2022-11-09T23:55:00.873Z,29.23
2022-11-09T23:57:52.754Z,29.00
